createdAt,value
2019-06-07T00:02:24.215Z,95.30
2019-06-07T00:04:54.586Z,95.40
2019-06-07T00:07:24.897Z,95.60
2019-06-07T00:09:55.273Z,96.00
2019-06-07T00:12:25.579Z,96.30
2019-06-07T00:14:55.950Z,96.00
2019-06-07T00:17:26.328Z,96.10
2019-06-07T00:19:56.718Z,95.80
2019-06-07T00:22:32.965Z,95.50
2019-06-07T00:24:59.040Z,95.30
2019-06-07T00:27:29.335Z,95.50
2019-06-07T00:29:59.701Z,95.80
2019-06-07T00:32:30.033Z,95.70
2019-06-07T00:35:00.378Z,95.90
2019-06-07T00:37:30.696Z,96.00
2019-06-07T00:40:13.965Z,96.40
2019-06-07T00:42:33.020Z,96.30
2019-06-07T00:45:04.091Z,96.10
2019-06-07T00:47:34.401Z,96.40
2019-06-07T00:50:05.971Z,96.40
2019-06-07T00:53:13.777Z,96.40
2019-06-07T00:55:13.789Z,96.30
2019-06-07T00:57:42.477Z,95.80
2019-06-07T01:00:15.024Z,96.00
2019-06-07T01:02:47.499Z,95.90
2019-06-07T01:05:22.121Z,95.90
2019-06-07T01:07:49.977Z,95.90
2019-06-07T01:10:42.822Z,95.70
2019-06-07T01:12:52.789Z,95.50
2019-06-07T01:15:28.552Z,95.70
2019-06-07T01:20:27.996Z,95.10
2019-06-07T01:22:58.319Z,95.30
2019-06-07T01:25:29.184Z,94.80
2019-06-07T01:27:59.590Z,95.20
2019-06-07T01:30:30.072Z,95.30
2019-06-07T01:33:00.393Z,95.20
2019-06-07T01:35:30.787Z,95.10
2019-06-07T01:38:01.093Z,95.10
2019-06-07T01:40:33.004Z,95.30
2019-06-07T01:43:03.472Z,95.20
2019-06-07T01:45:33.840Z,94.90
2019-06-07T01:48:04.146Z,94.70
2019-06-07T01:50:34.524Z,95.10
2019-06-07T01:53:04.841Z,95.00
2019-06-07T01:55:35.250Z,94.70
2019-06-07T01:58:05.547Z,94.90
2019-06-07T02:00:35.921Z,95.10
2019-06-07T02:03:06.250Z,94.50
2019-06-07T02:05:36.689Z,94.30
2019-06-07T02:08:06.969Z,94.20
2019-06-07T02:10:37.321Z,94.60
2019-06-07T02:13:07.721Z,94.40
2019-06-07T02:15:38.119Z,94.20
2019-06-07T02:18:08.439Z,94.00
2019-06-07T02:20:38.809Z,94.10
2019-06-07T02:23:09.117Z,94.10
2019-06-07T02:25:48.627Z,94.40
2019-06-07T02:28:27.401Z,94.40
2019-06-07T02:30:50.993Z,94.30
2019-06-07T02:33:15.361Z,94.50
2019-06-07T02:35:45.723Z,94.60
2019-06-07T02:38:16.027Z,94.60
2019-06-07T02:40:46.392Z,94.80
2019-06-07T02:43:16.695Z,94.70
2019-06-07T02:45:47.169Z,93.60
2019-06-07T02:48:18.477Z,93.50
2019-06-07T02:50:49.538Z,93.70
2019-06-07T02:53:19.863Z,93.80
2019-06-07T02:56:34.180Z,94.30
2019-06-07T02:58:22.166Z,94.40
2019-06-07T03:01:07.005Z,94.50
2019-06-07T03:03:24.635Z,94.40
2019-06-07T03:05:55.742Z,94.10
2019-06-07T03:08:28.296Z,94.40
2019-06-07T03:10:59.086Z,94.00
2019-06-07T03:13:34.194Z,93.70
2019-06-07T03:16:05.625Z,93.60
2019-06-07T03:18:55.977Z,93.80
2019-06-07T03:21:29.576Z,94.20
2019-06-07T03:24:00.777Z,94.50
2019-06-07T03:26:35.190Z,94.10
2019-06-07T03:29:03.497Z,94.10
2019-06-07T03:31:41.486Z,94.10
2019-06-07T03:34:05.780Z,94.50
2019-06-07T03:36:39.978Z,94.50
2019-06-07T03:39:08.097Z,94.30
2019-06-07T03:41:49.896Z,94.40
2019-06-07T03:44:10.378Z,94.50
2019-06-07T03:46:41.670Z,94.60
2019-06-07T03:49:12.279Z,94.50
2019-06-07T03:51:42.611Z,94.80
2019-06-07T03:54:12.930Z,94.70
2019-06-07T03:56:43.340Z,94.80
2019-06-07T03:59:13.661Z,94.90
2019-06-07T04:01:44.026Z,94.90
2019-06-07T04:04:14.324Z,95.00
2019-06-07T04:06:44.703Z,95.00
2019-06-07T04:09:15.003Z,95.00
2019-06-07T04:11:45.390Z,94.90
2019-06-07T04:14:15.687Z,94.90
2019-06-07T04:16:46.046Z,94.90
2019-06-07T04:19:16.364Z,94.90
2019-06-07T04:21:46.745Z,94.90
2019-06-07T04:24:17.065Z,94.90
2019-06-07T04:26:47.477Z,94.90
2019-06-07T04:29:33.142Z,95.00
2019-06-07T04:31:49.789Z,95.20
2019-06-07T04:34:20.078Z,95.20
2019-06-07T04:36:59.112Z,95.10
2019-06-07T04:39:25.594Z,94.90
2019-06-07T04:41:57.470Z,94.50
2019-06-07T04:44:28.875Z,94.30
2019-06-07T04:47:01.874Z,94.10
2019-06-07T04:49:38.163Z,94.00
2019-06-07T04:52:06.153Z,93.80
2019-06-07T04:54:38.579Z,93.60
2019-06-07T04:57:08.453Z,93.70
2019-06-07T05:00:11.340Z,93.60
2019-06-07T05:02:10.761Z,93.50
2019-06-07T05:04:42.315Z,93.80
2019-06-07T05:07:12.975Z,93.60
2019-06-07T05:09:43.513Z,93.40
2019-06-07T05:12:13.944Z,93.40
2019-06-07T05:14:44.444Z,93.10
2019-06-07T05:17:14.842Z,92.90
2019-06-07T05:19:45.145Z,93.30
2019-06-07T05:22:15.517Z,93.30
2019-06-07T05:24:45.819Z,93.00
2019-06-07T05:27:16.218Z,93.00
2019-06-07T05:30:08.805Z,93.00
2019-06-07T05:32:18.802Z,92.10
2019-06-07T05:34:49.136Z,92.50
2019-06-07T05:37:19.501Z,91.40
2019-06-07T05:39:50.867Z,91.30
2019-06-07T05:42:21.526Z,90.80
2019-06-07T05:44:51.826Z,91.50
2019-06-07T05:47:22.209Z,91.70
2019-06-07T05:49:52.585Z,91.30
2019-06-07T05:52:23.009Z,90.70
2019-06-07T05:54:53.302Z,90.60
2019-06-07T05:57:23.680Z,89.70
2019-06-07T05:59:54.052Z,90.40
2019-06-07T06:02:25.078Z,91.00
2019-06-07T06:04:56.379Z,90.50
2019-06-07T06:07:26.737Z,90.20
2019-06-07T06:09:58.065Z,90.10
2019-06-07T06:12:35.244Z,89.50
2019-06-07T06:15:01.371Z,90.00
2019-06-07T06:17:31.744Z,90.70
2019-06-07T06:20:03.578Z,90.80
2019-06-07T06:22:34.089Z,91.00
2019-06-07T06:30:12.116Z,91.20
2019-06-07T06:32:52.131Z,91.30
2019-06-07T06:35:14.918Z,90.40
2019-06-07T06:37:49.655Z,90.60
2019-06-07T06:40:17.645Z,90.80
2019-06-07T06:42:50.608Z,89.60
2019-06-07T06:45:22.374Z,89.10
2019-06-07T06:47:52.738Z,89.40
2019-06-07T06:50:23.253Z,89.70
2019-06-07T06:52:54.682Z,88.40
2019-06-07T06:55:25.434Z,88.40
2019-06-07T06:57:55.809Z,89.50
2019-06-07T07:00:58.761Z,88.80
2019-06-07T07:05:54.767Z,88.40
2019-06-07T07:08:23.649Z,88.90
2019-06-07T07:10:55.065Z,89.80
2019-06-07T07:13:25.661Z,87.50
2019-06-07T07:15:58.399Z,89.50
2019-06-07T07:18:27.957Z,89.30
2019-06-07T07:20:58.267Z,90.10
2019-06-07T07:23:28.661Z,89.60
2019-06-07T07:26:00.129Z,87.50
2019-06-07T07:28:30.760Z,87.80
2019-06-07T07:31:01.081Z,87.60
2019-06-07T07:34:20.750Z,87.50
2019-06-07T07:36:19.061Z,87.70
2019-06-07T07:38:35.390Z,87.10
2019-06-07T07:41:14.436Z,88.00
2019-06-07T07:43:37.666Z,86.80
2019-06-07T07:46:28.398Z,86.40
2019-06-07T07:48:39.981Z,86.90
2019-06-07T07:51:10.296Z,87.10
2019-06-07T07:53:52.123Z,87.90
2019-06-07T07:56:12.591Z,88.50
2019-06-07T07:58:43.059Z,88.90
2019-06-07T08:01:14.058Z,86.50
2019-06-07T08:03:46.052Z,87.40
2019-06-07T08:06:16.408Z,88.00
2019-06-07T08:08:46.785Z,86.50
2019-06-07T08:11:17.107Z,86.10
2019-06-07T08:13:48.112Z,84.70
2019-06-07T08:16:19.627Z,83.90
2019-06-07T08:18:53.305Z,83.50
2019-06-07T08:21:26.416Z,83.10
2019-06-07T08:23:58.415Z,84.60
2019-06-07T08:26:25.930Z,84.70
2019-06-07T08:28:59.724Z,82.30
2019-06-07T08:31:28.406Z,82.50
2019-06-07T08:34:00.666Z,82.90
2019-06-07T08:36:41.810Z,82.60
2019-06-07T08:39:07.202Z,81.10
2019-06-07T08:41:34.597Z,81.70
2019-06-07T08:44:22.850Z,82.00
2019-06-07T08:46:37.182Z,80.50
2019-06-07T08:49:07.653Z,80.50
2019-06-07T08:51:38.925Z,79.80
2019-06-07T08:54:22.278Z,80.60
2019-06-07T08:56:43.539Z,78.60
2019-06-07T08:59:14.202Z,79.50
2019-06-07T09:01:44.523Z,80.60
2019-06-07T09:04:14.890Z,80.50
2019-06-07T09:09:17.140Z,80.20
2019-06-07T09:11:47.457Z,78.00
2019-06-07T09:14:17.791Z,78.00
2019-06-07T09:16:48.062Z,79.00
2019-06-07T09:19:18.453Z,77.10
2019-06-07T09:21:48.728Z,75.00
2019-06-07T09:24:19.095Z,76.00
2019-06-07T09:26:49.420Z,77.10
2019-06-07T09:29:20.155Z,76.50
2019-06-07T09:31:53.248Z,78.40
2019-06-07T09:34:22.436Z,78.10
2019-06-07T09:36:53.156Z,76.20
2019-06-07T09:39:23.511Z,75.40
2019-06-07T09:41:53.820Z,74.50
2019-06-07T09:44:26.462Z,74.30
2019-06-07T09:47:19.583Z,72.50
2019-06-07T09:49:32.571Z,71.40
2019-06-07T09:52:02.932Z,72.30
2019-06-07T09:57:07.571Z,71.30
2019-06-07T09:59:36.013Z,70.00
2019-06-07T10:02:09.569Z,71.50
2019-06-07T10:04:38.336Z,70.90
2019-06-07T10:07:27.263Z,72.80
2019-06-07T10:12:13.518Z,68.90
2019-06-07T10:14:45.273Z,68.00
2019-06-07T10:17:15.953Z,72.10
2019-06-07T10:19:46.127Z,70.30
2019-06-07T10:22:16.438Z,67.60
2019-06-07T10:24:46.825Z,69.40
2019-06-07T10:27:17.114Z,68.40
2019-06-07T10:29:47.487Z,67.00
2019-06-07T10:32:17.754Z,65.20
2019-06-07T10:34:48.142Z,65.00
2019-06-07T10:37:18.485Z,66.30
2019-06-07T10:39:49.447Z,67.50
2019-06-07T10:42:19.915Z,67.50
2019-06-07T10:44:50.274Z,65.60
2019-06-07T10:47:20.546Z,61.30
2019-06-07T10:49:51.986Z,62.20
2019-06-07T10:52:22.204Z,62.00
2019-06-07T10:54:52.593Z,61.50
2019-06-07T10:57:23.122Z,61.80
2019-06-07T10:59:56.609Z,58.80
2019-06-07T11:02:26.950Z,61.00
2019-06-07T11:04:57.332Z,60.30
2019-06-07T11:07:27.640Z,61.70
2019-06-07T11:10:07.344Z,62.00
2019-06-07T11:12:29.982Z,59.90
2019-06-07T11:15:00.364Z,60.30
2019-06-07T11:17:30.669Z,59.80
2019-06-07T11:20:01.041Z,54.40
2019-06-07T11:22:31.344Z,59.70
2019-06-07T11:25:01.861Z,59.90
2019-06-07T11:27:32.533Z,61.10
2019-06-07T11:30:02.910Z,59.80
2019-06-07T11:32:35.345Z,58.00
2019-06-07T11:35:11.501Z,60.70
2019-06-07T11:37:42.032Z,60.40
2019-06-07T11:40:35.623Z,59.80
2019-06-07T11:42:44.650Z,57.50
2019-06-07T11:45:15.801Z,58.20
2019-06-07T11:47:46.064Z,57.80
2019-06-07T11:50:17.663Z,58.70
2019-06-07T11:52:48.045Z,57.20
2019-06-07T11:55:19.101Z,56.50
2019-06-07T11:57:49.478Z,56.20
2019-06-07T12:00:21.052Z,58.50
2019-06-07T12:02:51.276Z,58.00
2019-06-07T12:05:21.647Z,58.10
2019-06-07T12:07:51.936Z,58.30
2019-06-07T12:10:23.106Z,58.50
2019-06-07T12:12:53.517Z,58.20
2019-06-07T12:15:23.886Z,56.70
2019-06-07T12:17:54.153Z,58.00
2019-06-07T12:20:26.013Z,56.50
2019-06-07T12:22:56.322Z,55.30
2019-06-07T12:25:26.654Z,55.90
2019-06-07T12:27:57.004Z,54.00
2019-06-07T12:30:28.157Z,54.30
2019-06-07T12:32:59.867Z,56.40
2019-06-07T12:35:30.186Z,56.70
2019-06-07T12:38:00.585Z,57.30
2019-06-07T12:40:32.398Z,58.70
2019-06-07T12:43:03.033Z,57.20
2019-06-07T12:45:44.317Z,56.40
2019-06-07T12:48:05.530Z,54.30
2019-06-07T12:50:44.031Z,54.10
2019-06-07T12:53:07.890Z,54.00
2019-06-07T12:55:38.166Z,52.00
2019-06-07T12:58:08.482Z,53.50
2019-06-07T13:00:38.855Z,52.00
2019-06-07T13:03:09.143Z,51.50
2019-06-07T13:05:39.494Z,52.70
2019-06-07T13:08:09.783Z,51.10
2019-06-07T13:10:40.147Z,52.60
2019-06-07T13:13:10.402Z,49.20
2019-06-07T13:15:40.730Z,52.10
2019-06-07T13:18:14.854Z,52.80
2019-06-07T13:20:42.976Z,52.00
2019-06-07T13:23:13.267Z,52.00
2019-06-07T13:25:46.613Z,51.80
2019-06-07T13:28:17.098Z,50.90
2019-06-07T13:30:47.494Z,49.60
2019-06-07T13:33:19.012Z,50.10
2019-06-07T13:35:49.484Z,52.00
2019-06-07T13:38:26.457Z,50.50
2019-06-07T13:40:57.069Z,51.80
2019-06-07T13:43:28.179Z,52.00
2019-06-07T13:45:58.799Z,51.10
2019-06-07T13:48:29.051Z,50.80
2019-06-07T13:50:59.426Z,50.20
2019-06-07T13:53:29.687Z,50.10
2019-06-07T13:56:00.059Z,50.50
2019-06-07T13:58:30.309Z,50.20
2019-06-07T14:01:00.663Z,50.50
2019-06-07T14:03:33.821Z,50.00
2019-06-07T14:06:02.908Z,51.00
2019-06-07T14:08:33.178Z,52.10
2019-06-07T14:11:03.498Z,52.40
2019-06-07T14:13:33.794Z,51.80
2019-06-07T14:16:04.211Z,52.80
2019-06-07T14:18:34.493Z,52.50
2019-06-07T14:21:04.825Z,52.70
2019-06-07T14:23:48.364Z,53.90
2019-06-07T14:26:07.086Z,51.90
2019-06-07T14:28:37.403Z,50.40
2019-06-07T14:31:07.798Z,52.00
2019-06-07T14:33:38.078Z,50.60
2019-06-07T14:36:10.142Z,51.60
2019-06-07T14:38:40.446Z,51.30
2019-06-07T14:41:10.775Z,48.80
2019-06-07T14:43:41.167Z,49.20
2019-06-07T14:46:11.725Z,47.70
2019-06-07T14:48:42.189Z,47.30
2019-06-07T14:51:12.627Z,48.60
2019-06-07T14:53:42.941Z,49.80
2019-06-07T14:56:13.288Z,49.80
2019-06-07T14:58:43.720Z,47.60
2019-06-07T15:01:14.116Z,48.20
2019-06-07T15:03:44.410Z,49.80
2019-06-07T15:06:14.768Z,50.70
2019-06-07T15:08:45.029Z,49.00
2019-06-07T15:11:15.364Z,47.70
2019-06-07T15:13:45.634Z,47.30
2019-06-07T15:16:15.958Z,47.30
2019-06-07T15:18:46.224Z,47.80
2019-06-07T15:21:16.560Z,48.10
2019-06-07T15:23:46.822Z,48.60
2019-06-07T15:26:17.183Z,48.40
2019-06-07T15:28:47.437Z,49.00
2019-06-07T15:31:17.769Z,49.60
2019-06-07T15:33:48.051Z,48.50
2019-06-07T15:36:18.407Z,50.20
2019-06-07T15:38:48.696Z,48.90
2019-06-07T15:41:19.063Z,50.90
2019-06-07T15:43:49.320Z,50.00
2019-06-07T15:46:19.645Z,48.90
2019-06-07T15:48:49.938Z,50.10
2019-06-07T15:51:20.265Z,50.20
2019-06-07T15:53:50.568Z,48.70
2019-06-07T15:56:20.918Z,48.90
2019-06-07T15:58:51.174Z,47.70
2019-06-07T16:01:21.505Z,47.50
2019-06-07T16:03:53.327Z,46.80
2019-06-07T16:06:23.625Z,47.10
2019-06-07T16:08:53.906Z,48.30
2019-06-07T16:11:24.236Z,49.10
2019-06-07T16:13:54.539Z,49.00
2019-06-07T16:16:24.908Z,49.40
2019-06-07T16:18:55.214Z,48.10
2019-06-07T16:21:25.570Z,48.90
2019-06-07T16:23:55.864Z,49.90
2019-06-07T16:26:26.202Z,47.70
2019-06-07T16:28:57.353Z,48.30
2019-06-07T16:31:27.863Z,50.20
2019-06-07T16:33:58.158Z,51.00
2019-06-07T16:36:29.518Z,50.80
2019-06-07T16:38:59.805Z,51.70
2019-06-07T16:41:31.684Z,50.40
2019-06-07T16:44:02.019Z,50.80
2019-06-07T16:46:32.401Z,51.80
2019-06-07T16:49:02.704Z,52.40
2019-06-07T16:51:34.064Z,52.30
2019-06-07T16:54:04.366Z,52.60
2019-06-07T16:56:34.683Z,52.60
2019-06-07T16:59:04.961Z,52.40
2019-06-07T17:01:35.309Z,52.50
2019-06-07T17:04:05.580Z,52.60
2019-06-07T17:06:35.896Z,52.80
2019-06-07T17:09:08.001Z,53.20
2019-06-07T17:11:38.329Z,52.80
2019-06-07T17:14:08.629Z,52.30
2019-06-07T17:16:40.777Z,52.70
2019-06-07T17:19:11.307Z,52.60
2019-06-07T17:21:41.641Z,53.20
2019-06-07T17:24:11.943Z,51.30
2019-06-07T17:26:43.357Z,51.50
2019-06-07T17:29:13.698Z,52.60
2019-06-07T17:31:44.731Z,56.00
2019-06-07T17:34:15.458Z,58.60
2019-06-07T17:36:46.437Z,60.50
2019-06-07T17:39:16.669Z,62.50
2019-06-07T17:41:58.923Z,64.50
2019-06-07T17:44:18.947Z,63.40
2019-06-07T17:46:49.898Z,63.50
2019-06-07T17:49:20.365Z,64.40
2019-06-07T17:51:52.038Z,64.50
2019-06-07T17:54:22.582Z,64.90
2019-06-07T17:56:53.457Z,65.50
2019-06-07T17:59:24.909Z,65.70
2019-06-07T18:02:13.440Z,65.30
2019-06-07T18:04:27.236Z,65.80
2019-06-07T18:06:57.658Z,67.50
2019-06-07T18:09:28.425Z,66.80
2019-06-07T18:11:58.769Z,67.20
2019-06-07T18:14:29.040Z,69.20
2019-06-07T18:16:59.380Z,69.30
2019-06-07T18:19:29.682Z,70.10
2019-06-07T18:22:00.012Z,71.80
2019-06-07T18:24:30.314Z,72.90
2019-06-07T18:27:00.637Z,73.50
2019-06-07T18:29:30.897Z,73.70
2019-06-07T18:32:01.241Z,74.30
2019-06-07T18:37:18.113Z,75.10
2019-06-07T18:39:48.940Z,75.30
2019-06-07T18:42:19.336Z,76.20
2019-06-07T18:44:49.607Z,76.00
2019-06-07T18:47:19.986Z,75.80
2019-06-07T18:49:53.629Z,76.00
2019-06-07T18:52:33.310Z,75.40
2019-06-07T18:55:11.826Z,75.40
2019-06-07T18:57:43.118Z,75.60
2019-06-07T19:00:18.799Z,75.40
2019-06-07T19:02:49.719Z,75.40
2019-06-07T19:05:23.234Z,74.90
2019-06-07T19:07:54.658Z,74.50
2019-06-07T19:10:27.885Z,72.90
2019-06-07T19:13:00.356Z,72.50
2019-06-07T19:15:32.505Z,72.30
2019-06-07T19:18:05.751Z,72.40
2019-06-07T19:20:36.029Z,72.70
2019-06-07T19:23:09.083Z,73.30
2019-06-07T19:25:41.403Z,74.40
2019-06-07T19:28:11.779Z,75.60
2019-06-07T19:30:42.117Z,76.00
2019-06-07T19:33:13.522Z,74.40
2019-06-07T19:35:43.954Z,74.50
2019-06-07T19:38:16.961Z,75.40
2019-06-07T19:40:47.657Z,75.20
2019-06-07T19:43:18.041Z,76.10
2019-06-07T19:45:48.372Z,76.80
2019-06-07T19:48:20.046Z,75.30
2019-06-07T19:50:52.890Z,74.50
2019-06-07T19:53:23.294Z,73.80
2019-06-07T19:55:53.676Z,73.20
2019-06-07T19:58:25.095Z,72.80
2019-06-07T20:00:55.551Z,73.30
2019-06-07T20:03:27.004Z,73.10
2019-06-07T20:05:58.090Z,72.90
2019-06-07T20:08:28.521Z,73.00
2019-06-07T20:10:58.805Z,73.00
2019-06-07T20:13:29.129Z,72.80
2019-06-07T20:15:59.405Z,71.70
2019-06-07T20:18:29.741Z,71.80
2019-06-07T20:21:00.693Z,71.20
2019-06-07T20:23:31.200Z,71.30
2019-06-07T20:26:02.456Z,70.90
2019-06-07T20:28:32.981Z,70.90
2019-06-07T20:31:03.892Z,71.40
2019-06-07T20:33:34.455Z,72.00
2019-06-07T20:36:04.919Z,71.40
2019-06-07T20:38:35.230Z,71.80
2019-06-07T20:41:05.501Z,72.10
2019-06-07T20:43:35.844Z,72.60
2019-06-07T20:46:06.673Z,72.00
2019-06-07T20:48:38.272Z,72.00
2019-06-07T20:51:08.773Z,72.30
2019-06-07T20:53:39.177Z,71.80
2019-06-07T20:56:09.432Z,71.30
2019-06-07T20:58:41.757Z,70.70
2019-06-07T21:01:12.058Z,70.40
2019-06-07T21:03:43.968Z,69.90
2019-06-07T21:06:14.259Z,69.30
2019-06-07T21:08:44.597Z,69.60
2019-06-07T21:11:14.893Z,69.70
2019-06-07T21:13:45.225Z,70.00
2019-06-07T21:16:15.518Z,70.30
2019-06-07T21:18:45.878Z,71.20
2019-06-07T21:21:17.675Z,72.60
2019-06-07T21:23:48.054Z,73.40
2019-06-07T21:26:18.350Z,74.10
2019-06-07T21:28:49.979Z,74.40
2019-06-07T21:31:20.294Z,75.20
2019-06-07T21:33:50.656Z,75.40
2019-06-07T21:36:20.970Z,75.90
2019-06-07T21:38:51.343Z,76.60
2019-06-07T21:41:21.630Z,77.10
2019-06-07T21:43:51.996Z,77.20
2019-06-07T21:46:22.286Z,77.70
2019-06-07T21:48:52.644Z,77.80
2019-06-07T21:51:22.954Z,78.10
2019-06-07T21:53:53.315Z,79.00
2019-06-07T21:56:23.590Z,78.30
2019-06-07T21:58:53.958Z,78.50
2019-06-07T22:01:25.263Z,78.80
2019-06-07T22:03:55.642Z,78.50
2019-06-07T22:06:25.952Z,78.60
2019-06-07T22:08:56.322Z,78.30
2019-06-07T22:11:26.635Z,77.80
2019-06-07T22:13:56.973Z,77.50
2019-06-07T22:16:29.482Z,77.10
2019-06-07T22:18:59.238Z,76.80
2019-06-07T22:21:29.526Z,76.30
2019-06-07T22:23:59.890Z,76.00
2019-06-07T22:26:30.190Z,75.60
2019-06-07T22:29:00.528Z,74.90
2019-06-07T22:31:31.195Z,74.80
2019-06-07T22:34:01.920Z,74.20
2019-06-07T22:36:32.478Z,74.10
2019-06-07T22:39:04.237Z,74.30
2019-06-07T22:41:36.038Z,74.10
2019-06-07T22:44:07.057Z,74.30
2019-06-07T22:46:38.012Z,74.40
2019-06-07T22:49:09.158Z,75.10
2019-06-07T22:51:40.657Z,74.80
2019-06-07T22:54:11.724Z,74.80
2019-06-07T22:56:43.687Z,75.20
2019-06-07T22:59:16.966Z,74.70
2019-06-07T23:01:45.982Z,75.30
2019-06-07T23:04:16.703Z,75.10
2019-06-07T23:06:48.222Z,75.10
2019-06-07T23:09:19.802Z,75.10
2019-06-07T23:11:50.191Z,74.60
2019-06-07T23:14:20.541Z,75.40
2019-06-07T23:16:55.622Z,74.90
2019-06-07T23:19:22.807Z,74.40
2019-06-07T23:21:53.105Z,73.60
2019-06-07T23:24:23.481Z,73.50
2019-06-07T23:26:53.770Z,73.80
2019-06-07T23:29:24.126Z,73.70
2019-06-07T23:31:54.453Z,74.10
2019-06-07T23:34:25.798Z,74.20
2019-06-07T23:36:56.090Z,74.60
2019-06-07T23:39:26.489Z,75.30
2019-06-07T23:41:56.787Z,75.90
2019-06-07T23:44:27.146Z,77.10
2019-06-07T23:47:10.438Z,77.60
2019-06-07T23:49:29.452Z,77.90
2019-06-07T23:51:59.773Z,78.50
2019-06-07T23:54:30.146Z,78.50
2019-06-07T23:57:00.441Z,78.70
2019-06-07T23:59:30.816Z,78.40
